Lähistön asemien METAR-raportit

 

EFJY - Jyvaskyla (mil/C, Finland
Etäisyys Sääasemalta: E 40km
Päivitetty: 21/10/2019 23:20
Heikkoa sadetta, Kuurottaisia sateita, Pilvistä
Heikkoa sadetta, Kuurottaisia sateita, Pilvistä
 Tuulen suunta E
Tuuli: E 11 km/h
Lämpötila: 1°C
Tuulen purevuus: -2°C
Kastepiste: 0°C
Ilmankosteus: 93%
Ilmanpaine: 1015 hPa
Yhteenveto: Heikkoa sadetta, Kuurottaisia sateita
Pilvisyys: Pilvistä
Näkyvyys: 9 km
Pilvisyystiedot: Pilvistä 213 m
2019/10/21 23:20 EFJY 212320Z AUTO 19006KT 9000 -SHRA OVC007 01/00 Q1015
EFKU - Kuopio (mil/Civ), Finland
Etäisyys Sääasemalta: IKo 106km
Päivitetty: 21/10/2019 23:20
Enimmäkseen pilvistä
Enimmäkseen pilvistä
 Tuulen suunta E
Tuuli: E 17 km/h
Lämpötila: 1°C
Tuulen purevuus: -3°C
Kastepiste: -1°C
Ilmankosteus: 87%
Ilmanpaine: 1015 hPa
Pilvisyys: Enimmäkseen pilvistä
Näkyvyys: 10 km
Pilvisyystiedot: Enimmäkseen pilvistä 549 m
2019/10/21 23:20 EFKU 212320Z AUTO 19009KT 9999 BKN018 01/M01 Q1015
EFHA - Halli (fin-Afb), Finland
Etäisyys Sääasemalta: ELo 113km
Päivitetty: 21/10/2019 23:20
Pilvistä
Pilvistä
 Tuulen suunta E
Tuuli: E 15 km/h
Lämpötila: 1°C
Tuulen purevuus: -3°C
Kastepiste: 1°C
Ilmankosteus: 100%
Ilmanpaine: 1015 hPa
Pilvisyys: Pilvistä
Näkyvyys: 10 km
Pilvisyystiedot: Pilvistä 183 m
2019/10/21 23:20 EFHA 212320Z AUTO 17008KT 9999 OVC006 01/01 Q1015
 
EFMI - Mikkeli, Finland
Etäisyys Sääasemalta: EKa 140km
Päivitetty: 21/10/2019 23:20
Enimmäkseen pilvistä
Enimmäkseen pilvistä
 Tuulen suunta ELo
Tuuli: ELo 4 km/h
Lämpötila: 1°C
Kastepiste: 1°C
Ilmankosteus: 100%
Ilmanpaine: 1017 hPa
Pilvisyys: Enimmäkseen pilvistä
Näkyvyys: 10 km
Pilvisyystiedot: Enimmäkseen pilvistä 671 m
2019/10/21 23:20 EFMI 212320Z AUTO 20002KT 9999 BKN022 01/01 Q1017
EFSI - Seinajoki-Ilmajo, Finland
Etäisyys Sääasemalta: L 150km
Päivitetty: 21/10/2019 23:20
Enimmäkseen pilvistä
Enimmäkseen pilvistä
 Tuulen suunta EKa
Tuuli: EKa 9 km/h
Lämpötila: 3°C
Tuulen purevuus: 0°C
Kastepiste: 3°C
Ilmankosteus: 100%
Ilmanpaine: 1012 hPa
Pilvisyys: Enimmäkseen pilvistä
Näkyvyys: 10 km
Pilvisyystiedot: Joitain Pilviä 152 m
Puolipilvistä 274 m
Enimmäkseen pilvistä 335 m
Enimmäkseen pilvistä 457 m
2019/10/21 23:20 EFSI 212320Z AUTO 16005KT 130V210 9999 FEW005 SCT009 BKN011 BKN015 03/03 Q1012
EFKK - Kruunupyy, Finland
Etäisyys Sääasemalta: Lu 170km
Päivitetty: 21/10/2019 23:20
Enimmäkseen pilvistä
Enimmäkseen pilvistä
 Tuulen suunta E
Tuuli: E 20 km/h
Lämpötila: 3°C
Tuulen purevuus: -2°C
Kastepiste: 2°C
Ilmankosteus: 93%
Ilmanpaine: 1011 hPa
Pilvisyys: Enimmäkseen pilvistä
Näkyvyys: 10 km
Pilvisyystiedot: Joitain Pilviä 244 m
Enimmäkseen pilvistä 823 m
2019/10/21 23:20 EFKK 212320Z AUTO 17011KT 9999 FEW008 BKN027 03/02 Q1011
 
EFSA - Savonlinna (aut), Finland
Etäisyys Sääasemalta: IKa 186km
Päivitetty: 21/10/2019 23:20
Pilvistä
Pilvistä
 Tuulen suunta LLo
Tuuli: LLo 7 km/h
Lämpötila: 1°C
Tuulen purevuus: -2°C
Kastepiste: 0°C
Ilmankosteus: 93%
Ilmanpaine: 1017 hPa
Pilvisyys: Pilvistä
Näkyvyys: 8 km
Pilvisyystiedot: Pilvistä 427 m
2019/10/21 23:20 EFSA 212320Z AUTO 24004KT 180V290 8000 OVC014 01/00 Q1017
EFTP - Tampere/Pirkkala, Finland
Etäisyys Sääasemalta: Lo 187km
Päivitetty: 21/10/2019 23:20
Pilvistä
Pilvistä
 Tuulen suunta E
Tuuli: E 15 km/h
Lämpötila: 2°C
Tuulen purevuus: -2°C
Kastepiste: 1°C
Ilmankosteus: 93%
Ilmanpaine: 1016 hPa
Pilvisyys: Pilvistä
Näkyvyys: 10 km
Pilvisyystiedot: Joitain Pilviä 213 m
Enimmäkseen pilvistä 671 m
Pilvistä 823 m
2019/10/21 23:20 EFTP 212320Z AUTO 18008KT 9999 FEW007 BKN022 OVC027 02/01 Q1016
EFKI - Kajaani, Finland
Etäisyys Sääasemalta: PKo 192km
Päivitetty: 21/10/2019 23:20
Pilvistä
Pilvistä
 Tuulen suunta ELo
Tuuli: ELo 13 km/h
Lämpötila: 0°C
Tuulen purevuus: -4°C
Kastepiste: 0°C
Ilmankosteus: 100%
Ilmanpaine: 1012 hPa
Pilvisyys: Pilvistä
Näkyvyys: 10 km
Pilvisyystiedot: Pilvistä 122 m
2019/10/21 23:20 EFKI 212320Z AUTO 20007KT 9999 OVC004 00/M00 Q1012
 
EFJO - Joensuu, Finland
Etäisyys Sääasemalta: I 196km
Päivitetty: 21/10/2019 23:20
Enimmäkseen pilvistä
Enimmäkseen pilvistä
 Tuulen suunta E
Tuuli: E 6 km/h
Lämpötila: 0°C
Kastepiste: 0°C
Ilmankosteus: 100%
Ilmanpaine: 1016 hPa
Pilvisyys: Enimmäkseen pilvistä
Näkyvyys: 10 km
Pilvisyystiedot: Enimmäkseen pilvistä 640 m
Enimmäkseen pilvistä 4237 m
2019/10/21 23:20 EFJO 212320Z AUTO 18003KT 9999 BKN021 BKN139 M00/M00 Q1016